Погода Сан-Джильянна неделю

Аура, Мальта

22 - 28 июля
  • 22июля
    Сегодня
    +24°
    +34°
    Ясно и безоблачно
    ВремяПогодаТемператураВлажностьДавлениеВетер, м/сВероятность осадков
    02:00Ясно и безоблачно+27°C71 %756 мм1.9 м/с2 %
    05:00Ясно и безоблачно+26°C75 %756 мм2.0 м/с2 %
    08:00Ясно и безоблачно+30°C62 %757 мм2.9 м/с2 %
    11:00Ясно и безоблачно+33°C55 %757 мм4.9 м/с2 %
    14:00Ясно и безоблачно+32°C68 %757 мм6.9 м/с2 %
    17:00Ясно и безоблачно+31°C69 %757 мм7.8 м/с2 %
    20:00Ясно и безоблачно+27°C78 %757 мм7.7 м/с2 %
    23:00Ясно и безоблачно+25°C75 %757 мм6.7 м/с2 %
  • 23июля
    Вторник
    +25°
    +33°
    Ясно и безоблачно
    ВремяПогодаТемператураВлажностьДавлениеВетер, м/сВероятность осадков
    02:00Ясно и безоблачно+25°C84 %757 мм7.8 м/с2 %
    05:00Ясно и безоблачно+24°C85 %757 мм6.3 м/с2 %
    08:00Ясно и безоблачно+27°C79 %757 мм6.0 м/с2 %
    11:00Ясно и безоблачно+31°C68 %758 мм5.8 м/с2 %
    14:00Ясно и безоблачно+32°C62 %758 мм4.6 м/с2 %
    17:00Ясно и безоблачно+32°C62 %757 мм4.3 м/с2 %
    20:00Ясно и безоблачно+29°C79 %757 мм4.4 м/с2 %
    23:00Ясно и безоблачно+27°C85 %758 мм3.3 м/с2 %
  • 24июля
    Среда
    +24°
    +33°
    Ясно и безоблачно
    ВремяПогодаТемператураВлажностьДавлениеВетер, м/сВероятность осадков
    02:00Ясно и безоблачно+26°C86 %757 мм3.4 м/с2 %
    05:00Ясно и безоблачно+25°C93 %756 мм3.8 м/с2 %
    08:00Ясно и безоблачно+29°C82 %757 мм4.1 м/с2 %
    11:00Ясно и безоблачно+32°C66 %757 мм5.3 м/с2 %
    14:00Ясно и безоблачно+33°C65 %757 мм6.3 м/с2 %
    17:00Ясно и безоблачно+31°C69 %756 мм6.0 м/с2 %
    20:00Ясно и безоблачно+27°C83 %755 мм5.1 м/с2 %
    23:00Ясно и безоблачно+25°C87 %755 мм3.5 м/с2 %
  • 25июля
    Четверг
    +23°
    +32°
    Ясно и безоблачно
    ВремяПогодаТемператураВлажностьДавлениеВетер, м/сВероятность осадков
    02:00Ясно и безоблачно+25°C91 %754 мм4.2 м/с2 %
    05:00Ясно и безоблачно+24°C93 %753 мм4.0 м/с2 %
    08:00Ясно и безоблачно+28°C83 %754 мм4.4 м/с2 %
    11:00Ясно и безоблачно+31°C72 %755 мм5.6 м/с2 %
    14:00Ясно и безоблачно+32°C69 %754 мм5.4 м/с2 %
    17:00Ясно и безоблачно+31°C66 %754 мм4.8 м/с2 %
    20:00Ясно и безоблачно+27°C72 %754 мм3.6 м/с2 %
    23:00Ясно и безоблачно+25°C83 %755 мм1.1 м/с2 %
Мы используем cookies
Соглашаюсь